createdAt,value
2023-06-17T00:03:00.155Z,20.57
2023-06-17T00:08:03.726Z,19.98
2023-06-17T00:13:10.115Z,18.51
2023-06-17T00:18:13.559Z,20.53
2023-06-17T00:23:17.108Z,20.25
2023-06-17T00:28:21.957Z,20.37
2023-06-17T00:33:25.485Z,19.85
2023-06-17T00:38:28.930Z,19.95
2023-06-17T00:43:33.837Z,20.07
2023-06-17T00:48:37.740Z,19.94
2023-06-17T00:53:41.363Z,19.45
2023-06-17T00:58:46.752Z,17.27
2023-06-17T01:09:23.149Z,19.52
2023-06-17T01:14:29.715Z,18.69
2023-06-17T01:19:36.523Z,19.10
2023-06-17T01:24:41.643Z,18.91
2023-06-17T01:29:48.245Z,18.76
2023-06-17T01:34:58.051Z,18.94
2023-06-17T01:40:08.013Z,18.96
2023-06-17T01:45:13.108Z,18.92
2023-06-17T01:50:20.896Z,18.87
2023-06-17T01:55:26.419Z,18.69
2023-06-17T02:00:31.589Z,18.78
2023-06-17T02:05:35.430Z,18.70
2023-06-17T02:10:40.370Z,17.96
2023-06-17T02:15:44.077Z,18.52
2023-06-17T02:20:50.620Z,18.43
2023-06-17T02:25:56.051Z,18.29
2023-06-17T02:31:02.157Z,17.66
2023-06-17T02:36:06.725Z,18.16
2023-06-17T02:41:11.575Z,18.09
2023-06-17T02:46:15.259Z,17.98
2023-06-17T02:51:19.255Z,17.33
2023-06-17T02:56:24.409Z,17.88
2023-06-17T03:01:29.777Z,17.54
2023-06-17T03:06:35.222Z,17.46
2023-06-17T03:11:41.382Z,17.30
2023-06-17T03:16:45.668Z,17.14
2023-06-17T03:21:51.250Z,17.12
2023-06-17T03:26:56.570Z,17.33
2023-06-17T03:32:00.870Z,17.24
2023-06-17T03:37:07.755Z,17.18
2023-06-17T03:42:15.183Z,17.22
2023-06-17T03:47:18.673Z,17.11
2023-06-17T03:52:22.305Z,16.22
2023-06-17T03:57:27.600Z,17.10
2023-06-17T04:02:31.182Z,17.07
2023-06-17T04:07:35.298Z,16.85
2023-06-17T04:12:41.007Z,17.09
2023-06-17T04:17:44.841Z,16.86
2023-06-17T04:22:48.440Z,17.07
2023-06-17T04:27:54.852Z,16.96
2023-06-17T04:33:01.463Z,17.04
2023-06-17T04:38:05.962Z,17.16
2023-06-17T04:43:11.012Z,17.21
2023-06-17T04:48:15.728Z,17.26
2023-06-17T04:53:19.666Z,17.29
2023-06-17T04:58:24.798Z,17.31
2023-06-17T05:03:34.910Z,17.44
2023-06-17T05:08:38.910Z,15.82
2023-06-17T05:13:44.898Z,17.61
2023-06-17T05:18:48.438Z,17.66
2023-06-17T05:23:52.170Z,16.39
2023-06-17T05:28:58.203Z,17.86
2023-06-17T05:34:03.691Z,17.94
2023-06-17T05:39:07.774Z,18.05
2023-06-17T05:44:13.291Z,17.82
2023-06-17T05:49:17.503Z,18.29
2023-06-17T05:54:22.101Z,16.51
2023-06-17T05:59:29.918Z,18.59
2023-06-17T06:04:34.646Z,18.70
2023-06-17T06:09:38.178Z,18.07
2023-06-17T06:14:43.340Z,19.06
2023-06-17T06:19:46.990Z,19.03
2023-06-17T06:24:50.745Z,18.63
2023-06-17T06:29:56.271Z,19.53
2023-06-17T06:35:00.918Z,19.70
2023-06-17T06:40:06.484Z,19.87
2023-06-17T06:45:13.951Z,20.08
2023-06-17T06:50:17.661Z,20.23
2023-06-17T06:55:24.648Z,20.34
2023-06-17T07:00:32.710Z,19.95
2023-06-17T07:05:36.531Z,20.84
2023-06-17T07:10:42.234Z,21.07
2023-06-17T07:15:50.388Z,21.30
2023-06-17T07:20:56.089Z,21.21
2023-06-17T07:26:00.041Z,21.73
2023-06-17T07:31:07.644Z,21.99
2023-06-17T07:36:11.238Z,22.20
2023-06-17T07:41:14.822Z,22.24
2023-06-17T07:46:19.732Z,22.40
2023-06-17T07:51:23.183Z,22.76
2023-06-17T07:56:28.648Z,22.25
2023-06-17T08:01:33.697Z,23.12
2023-06-17T08:06:38.834Z,23.32
2023-06-17T08:11:42.260Z,23.63
2023-06-17T08:16:47.966Z,23.89
2023-06-17T08:21:51.516Z,23.07
2023-06-17T08:26:56.078Z,23.71
2023-06-17T08:32:00.940Z,24.56
2023-06-17T08:37:05.888Z,24.73
2023-06-17T08:42:11.071Z,24.97
2023-06-17T08:47:17.045Z,24.98
2023-06-17T08:52:20.872Z,25.37
2023-06-17T08:57:24.749Z,25.14
2023-06-17T09:02:31.455Z,25.46
2023-06-17T09:07:35.094Z,25.79
2023-06-17T09:12:39.940Z,26.16
2023-06-17T09:17:46.913Z,26.38
2023-06-17T09:22:51.094Z,26.39
2023-06-17T09:33:05.813Z,25.54
2023-06-17T09:38:09.512Z,26.83
2023-06-17T09:43:26.830Z,26.04
2023-06-17T09:48:34.446Z,27.61
2023-06-17T09:53:39.540Z,27.77
2023-06-17T09:58:44.979Z,26.57
2023-06-17T10:03:50.416Z,27.63
2023-06-17T10:08:54.324Z,28.06
2023-06-17T10:14:03.682Z,28.24
2023-06-17T10:19:10.822Z,28.40
2023-06-17T10:24:15.855Z,27.30
2023-06-17T10:29:22.281Z,28.64
2023-06-17T10:34:28.129Z,27.96
2023-06-17T10:39:31.631Z,28.93
2023-06-17T10:44:44.704Z,28.88
2023-06-17T10:49:51.148Z,29.24
2023-06-17T10:54:55.794Z,29.14
2023-06-17T11:00:03.738Z,29.67
2023-06-17T11:17:45.823Z,28.79
2023-06-17T11:23:26.908Z,27.77
2023-06-17T11:28:44.512Z,29.97
2023-06-17T11:33:49.219Z,28.90
2023-06-17T11:38:55.495Z,29.31
2023-06-17T11:43:59.630Z,30.09
2023-06-17T11:49:07.568Z,30.20
2023-06-17T11:54:12.419Z,30.31
2023-06-17T11:59:15.894Z,30.11
2023-06-17T12:04:19.991Z,30.00
2023-06-17T12:09:25.130Z,29.81
2023-06-17T12:14:28.746Z,30.32
2023-06-17T12:19:32.429Z,30.07
2023-06-17T12:24:37.307Z,30.55
2023-06-17T12:29:41.358Z,30.85
2023-06-17T12:34:45.474Z,30.80
2023-06-17T12:39:51.007Z,30.94
2023-06-17T12:44:54.558Z,30.78
2023-06-17T12:50:00.309Z,30.93
2023-06-17T12:55:09.984Z,30.17
2023-06-17T13:00:17.380Z,30.92
2023-06-17T13:05:21.450Z,30.88
2023-06-17T13:10:27.570Z,30.80
2023-06-17T13:15:31.514Z,30.09
2023-06-17T13:20:34.994Z,31.20
2023-06-17T13:25:39.878Z,31.51
2023-06-17T13:30:44.813Z,31.50
2023-06-17T13:35:48.357Z,31.59
2023-06-17T13:40:53.461Z,31.65
2023-06-17T13:45:57.018Z,31.31
2023-06-17T13:57:26.062Z,31.02
2023-06-17T14:02:29.596Z,31.33
2023-06-17T14:07:33.785Z,31.63
2023-06-17T14:12:39.902Z,31.47
2023-06-17T14:17:43.498Z,31.54
2023-06-17T14:22:47.198Z,31.37
2023-06-17T14:27:52.872Z,31.82
2023-06-17T14:32:58.547Z,31.43
2023-06-17T14:38:02.120Z,30.72
2023-06-17T14:43:08.212Z,31.93
2023-06-17T14:48:12.092Z,31.44
2023-06-17T14:53:32.431Z,32.01
2023-06-17T14:58:37.191Z,31.93
2023-06-17T15:03:40.843Z,31.62
2023-06-17T15:08:44.953Z,32.00
2023-06-17T15:13:50.264Z,32.04
2023-06-17T15:18:54.895Z,30.87
2023-06-17T15:23:58.421Z,31.65
2023-06-17T15:29:03.470Z,32.09
2023-06-17T15:34:07.087Z,32.07
2023-06-17T15:39:18.846Z,32.20
2023-06-17T15:44:24.155Z,32.13
2023-06-17T15:49:27.763Z,31.64
2023-06-17T15:54:31.419Z,32.14
2023-06-17T15:59:37.352Z,32.16
2023-06-17T16:04:41.332Z,32.02
2023-06-17T16:09:48.773Z,31.30
2023-06-17T16:14:53.845Z,31.75
2023-06-17T16:19:59.114Z,31.42
2023-06-17T16:25:02.920Z,31.73
2023-06-17T16:30:10.810Z,31.64
2023-06-17T16:35:14.612Z,31.69
2023-06-17T16:40:18.079Z,31.51
2023-06-17T16:45:23.068Z,31.64
2023-06-17T16:50:26.612Z,31.66
2023-06-17T16:55:30.463Z,31.61
2023-06-17T17:00:35.494Z,31.46
2023-06-17T17:05:39.077Z,30.91
2023-06-17T17:10:42.643Z,31.32
2023-06-17T17:15:47.573Z,31.36
2023-06-17T17:20:50.986Z,31.40
2023-06-17T17:25:54.550Z,31.29
2023-06-17T17:30:59.494Z,31.22
2023-06-17T17:36:03.183Z,30.91
2023-06-17T17:41:06.597Z,30.72
2023-06-17T17:46:12.514Z,30.96
2023-06-17T17:51:17.851Z,30.90
2023-06-17T17:56:21.432Z,30.17
2023-06-17T18:01:27.052Z,30.57
2023-06-17T18:06:31.469Z,30.57
2023-06-17T18:11:34.918Z,30.51
2023-06-17T18:16:39.770Z,30.07
2023-06-17T18:21:43.434Z,30.38
2023-06-17T18:26:46.961Z,30.31
2023-06-17T18:31:53.859Z,30.33
2023-06-17T18:36:57.485Z,30.16
2023-06-17T18:42:01.800Z,29.99
2023-06-17T18:47:06.983Z,29.72
2023-06-17T18:52:10.632Z,29.84
2023-06-17T18:57:14.663Z,29.74
2023-06-17T19:02:21.316Z,29.61
2023-06-17T19:07:24.969Z,29.22
2023-06-17T19:12:31.144Z,29.39
2023-06-17T19:17:38.512Z,29.39
2023-06-17T19:22:42.291Z,29.26
2023-06-17T19:27:45.887Z,29.18
2023-06-17T19:32:51.565Z,29.10
2023-06-17T19:37:55.119Z,28.95
2023-06-17T19:42:58.754Z,28.83
2023-06-17T19:48:03.823Z,28.30
2023-06-17T19:53:07.326Z,27.97
2023-06-17T19:58:10.835Z,28.37
2023-06-17T20:03:15.856Z,28.22
2023-06-17T20:08:19.670Z,27.77
2023-06-17T20:13:23.279Z,27.38
2023-06-17T20:18:28.208Z,27.19
2023-06-17T20:23:31.706Z,26.75
2023-06-17T20:28:35.304Z,27.47
2023-06-17T20:33:43.685Z,26.80
2023-06-17T20:38:47.291Z,26.62
2023-06-17T20:43:51.046Z,26.31
2023-06-17T20:48:56.744Z,26.61
2023-06-17T20:54:00.420Z,26.17
2023-06-17T20:59:04.481Z,26.46
2023-06-17T21:04:09.428Z,25.96
2023-06-17T21:09:13.817Z,25.66
2023-06-17T21:14:17.469Z,25.15
2023-06-17T21:19:22.652Z,25.63
2023-06-17T21:24:26.351Z,25.64
2023-06-17T21:29:30.179Z,25.43
2023-06-17T21:34:47.233Z,25.32
2023-06-17T21:39:51.227Z,24.29
2023-06-17T21:44:54.723Z,24.34
2023-06-17T21:49:59.662Z,24.47
2023-06-17T21:55:03.864Z,24.42
2023-06-17T22:00:09.467Z,24.37
2023-06-17T22:05:17.581Z,24.28
2023-06-17T22:10:21.279Z,23.70
2023-06-17T22:15:25.087Z,23.54
2023-06-17T22:20:31.081Z,23.42
2023-06-17T22:25:38.247Z,23.86
2023-06-17T22:30:43.455Z,23.72
2023-06-17T22:36:00.688Z,23.76
2023-06-17T22:41:05.470Z,22.61
2023-06-17T22:46:14.149Z,23.38
2023-06-17T22:51:24.533Z,22.27
2023-06-17T22:56:35.632Z,23.15
2023-06-17T23:01:39.181Z,23.03
2023-06-17T23:06:44.085Z,22.75
2023-06-17T23:11:47.664Z,22.17
2023-06-17T23:16:51.140Z,22.67
2023-06-17T23:21:56.213Z,22.50
2023-06-17T23:26:59.726Z,21.92
2023-06-17T23:32:03.258Z,22.08
2023-06-17T23:37:11.616Z,22.31
2023-06-17T23:42:15.164Z,22.15
2023-06-17T23:47:19.721Z,22.05
2023-06-17T23:52:24.661Z,21.67
2023-06-17T23:57:28.171Z,21.61
